Welcome to Northern Hawkes Bay. New Zealand.
PWS Header
      nz Flag



Hit Counter


W3C Valid W3C Valid logo


    Wairoa

Select any of the Stations below to visit their websites.










Historic Data from Weather Underground
Select the location of interest below. Wairoa is the default. Please have patience, this Data is slow to load in.
Northern Hawkes Bay Historical Data
Daily Summary for October 12, 2017 Units:  Metric    English   Both
« Previous Day
Next Day »
Daily Weekly Monthly Yearly Custom
  High: Low: Average:
Temperature: 17.3 °C 10.8 °C 13.6 °C
Dew Point: 11.2 °C 6.8 °C 9.2 °C
Humidity: 94% 54% 75%
Wind Speed: 24.5km/h 0.0km/h 4.8km/h
Wind Gust: 28.0km/h - -
Wind- - SW
Pressure: 1016.8 hPa 1010.4 hPa -
Precipitation: 0.3 mm    
Historical Graphs
 
 
Tabular Data for October 12, 2017
Time Temperature Dew Point Pressure Wind Wind Speed Wind Gust Humidity Rainfall Rate (Hourly) solar
00:02 12.7 °C 10.4 °C 1010.4 hPa WSW 7.2 km/h 15.8 km/h 86% 0.0 mm 0 W/m2
00:07 12.8 °C 10.3 °C 1010.7 hPa SW 15.8 km/h 24.5 km/h 85% 0.0 mm 0 W/m2
00:12 12.8 °C 10.3 °C 1010.7 hPa SW 9.7 km/h 24.5 km/h 85% 0.0 mm 0 W/m2
00:17 12.6 °C 10.3 °C 1010.4 hPa WSW 8.7 km/h 21.9 km/h 86% 0.0 mm 0 W/m2
00:22 12.5 °C 10.4 °C 1010.7 hPa WSW 12.2 km/h 20.9 km/h 87% 0.0 mm 0 W/m2
00:27 12.3 °C 10.4 °C 1010.7 hPa SW 8.7 km/h 19.5 km/h 88% 0.0 mm 0 W/m2
00:32 12.3 °C 10.4 °C 1010.7 hPa WSW 8.7 km/h 17.2 km/h 88% 0.0 mm 0 W/m2
00:37 12.3 °C 10.2 °C 1010.7 hPa WSW 8.7 km/h 18.3 km/h 87% 0.0 mm 0 W/m2
00:42 12.3 °C 10.2 °C 1011.1 hPa SW 9.7 km/h 19.5 km/h 87% 0.0 mm 0 W/m2
00:47 12.3 °C 10.2 °C 1011.1 hPa SW 11.1 km/h 20.9 km/h 87% 0.0 mm 0 W/m2
00:52 12.3 °C 10.2 °C 1011.1 hPa WSW 6.1 km/h 20.9 km/h 87% 0.0 mm 0 W/m2
00:57 12.3 °C 10.1 °C 1011.4 hPa WSW 12.2 km/h 23.3 km/h 86% 0.0 mm 0 W/m2
01:02 12.4 °C 9.8 °C 1011.7 hPa WSW 12.2 km/h 28.0 km/h 84% 0.0 mm 0 W/m2
01:07 12.3 °C 9.7 °C 1011.7 hPa WSW 24.5 km/h 28.0 km/h 84% 0.0 mm 0 W/m2
01:12 12.2 °C 9.6 °C 1011.7 hPa West 13.4 km/h 27.0 km/h 84% 0.0 mm 0 W/m2
01:22 12.0 °C 9.6 °C 1011.7 hPa West 13.4 km/h 21.9 km/h 85% 0.0 mm 0 W/m2
01:27 11.9 °C 9.8 °C 1011.7 hPa West 11.1 km/h 23.3 km/h 87% 0.0 mm 0 W/m2
01:32 11.7 °C 9.6 °C 1011.7 hPa West 5.0 km/h 24.5 km/h 87% 0.0 mm 0 W/m2
01:37 11.3 °C 9.4 °C 1011.4 hPa West 1.1 km/h 24.5 km/h 88% 0.3 mm 0 W/m2
01:42 11.2 °C 9.4 °C 1011.4 hPa WNW 7.2 km/h 14.8 km/h 89% 0.3 mm 0 W/m2
01:47 11.1 °C 9.5 °C 1011.4 hPa Calm   9.7 km/h 90% 0.3 mm 0 W/m2
01:52 11.1 °C 9.5 °C 1011.4 hPa Calm   7.2 km/h 90% 0.3 mm 0 W/m2
01:57 11.1 °C 9.5 °C 1011.4 hPa Calm   6.1 km/h 90% 0.3 mm 0 W/m2
02:17 11.4 °C 8.9 °C 1011.7 hPa Calm   5.0 km/h 85% 0.3 mm 0 W/m2
02:22 11.3 °C 8.7 °C 1011.7 hPa WNW 3.5 km/h 6.1 km/h 84% 0.3 mm 0 W/m2
02:27 11.4 °C 8.6 °C 1012.1 hPa West 5.0 km/h 7.2 km/h 83% 0.3 mm 0 W/m2
02:32 11.6 °C 8.3 °C 1012.1 hPa West 9.7 km/h 19.5 km/h 80% 0.3 mm 0 W/m2
02:37 11.8 °C 7.5 °C 1011.7 hPa West 1.1 km/h 19.5 km/h 75% 0.0 mm 0 W/m2
02:42 11.8 °C 7.5 °C 1011.7 hPa West 1.1 km/h 19.5 km/h 75% 0.0 mm 0 W/m2
02:47 11.8 °C 7.3 °C 1012.1 hPa West 3.5 km/h 9.7 km/h 74% 0.0 mm 0 W/m2
02:57 11.8 °C 7.3 °C 1012.1 hPa Calm   9.7 km/h 74% 0.0 mm 0 W/m2
03:03 11.7 °C 7.2 °C 1012.1 hPa WNW 2.6 km/h 5.0 km/h 74% 0.0 mm 0 W/m2
03:08 11.7 °C 7.0 °C 1012.1 hPa WNW 1.1 km/h 5.0 km/h 73% 0.0 mm 0 W/m2
03:13 11.6 °C 7.1 °C 1012.1 hPa WNW 1.1 km/h 5.0 km/h 74% 0.0 mm 0 W/m2
03:18 11.4 °C 7.5 °C 1012.1 hPa Calm   3.5 km/h 77% 0.0 mm 0 W/m2
03:23 11.1 °C 7.8 °C 1012.1 hPa Calm   3.5 km/h 80% 0.0 mm 0 W/m2
03:28 10.9 °C 8.1 °C 1012.1 hPa NNW 1.1 km/h 3.5 km/h 83% 0.0 mm 0 W/m2
03:33 10.9 °C 8.3 °C 1012.1 hPa Calm   3.5 km/h 84% 0.0 mm 0 W/m2
03:38 10.9 °C 8.3 °C 1012.1 hPa NNW 1.1 km/h 3.5 km/h 84% 0.0 mm 0 W/m2
03:48 10.8 °C 8.4 °C 1012.4 hPa NW 3.5 km/h 6.1 km/h 85% 0.0 mm 0 W/m2
03:53 10.9 °C 8.5 °C 1012.4 hPa NW 3.5 km/h 8.7 km/h 85% 0.0 mm 0 W/m2
03:58 10.9 °C 8.3 °C 1012.4 hPa NW 1.1 km/h 8.7 km/h 84% 0.0 mm 0 W/m2
04:03 10.9 °C 8.1 °C 1012.4 hPa NW 1.1 km/h 8.7 km/h 83% 0.0 mm 0 W/m2
04:08 10.9 °C 8.1 °C 1012.8 hPa NW 3.5 km/h 6.1 km/h 83% 0.0 mm 0 W/m2
04:13 10.9 °C 8.1 °C 1012.4 hPa NW 5.0 km/h 8.7 km/h 83% 0.0 mm 0 W/m2
04:18 11.2 °C 7.9 °C 1012.8 hPa WNW 6.1 km/h 14.8 km/h 80% 0.0 mm 0 W/m2
04:23 11.8 °C 7.5 °C 1012.4 hPa West 8.7 km/h 15.8 km/h 75% 0.0 mm 0 W/m2
04:28 12.1 °C 7.6 °C 1012.8 hPa WSW 6.1 km/h 15.8 km/h 74% 0.0 mm 0 W/m2
04:33 12.3 °C 7.8 °C 1012.8 hPa SW 14.8 km/h 20.9 km/h 74% 0.0 mm 0 W/m2
04:38 12.5 °C 7.6 °C 1012.8 hPa SW 15.8 km/h 23.3 km/h 72% 0.0 mm 0 W/m2
04:43 12.7 °C 7.6 °C 1012.8 hPa SW 12.2 km/h 23.3 km/h 71% 0.0 mm 0 W/m2
04:48 12.7 °C 7.6 °C 1012.8 hPa SW 15.8 km/h 21.9 km/h 71% 0.0 mm 0 W/m2
04:53 12.7 °C 7.6 °C 1012.8 hPa WSW 9.7 km/h 21.9 km/h 71% 0.0 mm 0 W/m2
04:58 12.7 °C 7.6 °C 1012.8 hPa SW 8.7 km/h 21.9 km/h 71% 0.0 mm 0 W/m2
05:03 12.6 °C 7.5 °C 1013.1 hPa SW 7.2 km/h 17.2 km/h 71% 0.0 mm 0 W/m2
05:08 12.5 °C 7.4 °C 1012.8 hPa SW 2.6 km/h 15.8 km/h 71% 0.0 mm 0 W/m2
05:13 12.4 °C 7.5 °C 1012.8 hPa SW 7.2 km/h 15.8 km/h 72% 0.0 mm 0 W/m2
05:18 12.4 °C 7.5 °C 1013.1 hPa SW 11.1 km/h 15.8 km/h 72% 0.0 mm 0 W/m2
05:23 12.5 °C 7.4 °C 1013.1 hPa SW 9.7 km/h 21.9 km/h 71% 0.0 mm 0 W/m2
05:28 12.5 °C 7.4 °C 1013.1 hPa SW 5.0 km/h 21.9 km/h 71% 0.0 mm 0 W/m2
05:33 12.5 °C 7.4 °C 1013.1 hPa SW 9.7 km/h 15.8 km/h 71% 0.0 mm 0 W/m2
05:43 12.3 °C 7.4 °C 1013.1 hPa SW 7.2 km/h 15.8 km/h 72% 0.0 mm 0 W/m2
05:48 12.3 °C 7.4 °C 1013.1 hPa SSW 5.0 km/h 14.8 km/h 72% 0.0 mm 0 W/m2
05:53 12.4 °C 7.5 °C 1013.1 hPa SSW 7.2 km/h 14.8 km/h 72% 0.0 mm 0 W/m2
05:58 12.4 °C 7.3 °C 1012.8 hPa SW 5.0 km/h 14.8 km/h 71% 0.0 mm 0 W/m2
06:03 12.3 °C 7.4 °C 1013.1 hPa SW 7.2 km/h 15.8 km/h 72% 0.0 mm 0 W/m2
06:08 12.4 °C 7.5 °C 1013.1 hPa SW 5.0 km/h 17.2 km/h 72% 0.0 mm 0 W/m2
06:13 12.4 °C 7.5 °C 1013.4 hPa SW 7.2 km/h 17.2 km/h 72% 0.0 mm 0 W/m2
06:18 12.4 °C 7.5 °C 1013.4 hPa SW 3.5 km/h 15.8 km/h 72% 0.0 mm 0 W/m2
06:23 12.3 °C 7.8 °C 1013.4 hPa SW 8.7 km/h 13.4 km/h 74% 0.0 mm 0 W/m2
06:28 12.5 °C 7.8 °C 1013.8 hPa SW 7.2 km/h 17.2 km/h 73% 0.0 mm 0 W/m2
06:33 12.5 °C 8.0 °C 1013.8 hPa SW 7.2 km/h 17.2 km/h 74% 0.0 mm 0 W/m2
06:38 12.4 °C 8.1 °C 1013.8 hPa SW 2.6 km/h 15.8 km/h 75% 0.0 mm 0 W/m2
06:43 12.4 °C 8.3 °C 1013.8 hPa SW 5.0 km/h 14.8 km/h 76% 0.0 mm 2 W/m2
06:48 12.4 °C 7.9 °C 1013.8 hPa SW 3.5 km/h 14.8 km/h 74% 0.0 mm 6 W/m2
06:53 12.5 °C 7.6 °C 1014.1 hPa SW 7.2 km/h 20.9 km/h 72% 0.0 mm 8 W/m2
06:58 12.5 °C 7.6 °C 1013.8 hPa SW 7.2 km/h 20.9 km/h 72% 0.0 mm 24 W/m2
07:08 12.6 °C 8.1 °C 1014.4 hPa WSW 5.0 km/h 8.7 km/h 74% 0.0 mm 24 W/m2
07:13 12.6 °C 8.3 °C 1014.1 hPa Calm   8.7 km/h 75% 0.0 mm 24 W/m2
07:18 12.5 °C 8.2 °C 1014.1 hPa Calm   8.7 km/h 75% 0.0 mm 39 W/m2
07:23 12.7 °C 8.4 °C 1014.4 hPa Calm   2.6 km/h 75% 0.0 mm 113 W/m2
07:29 13.5 °C 9.2 °C 1014.1 hPa Calm   2.6 km/h 75% 0.0 mm 70 W/m2
07:34 13.7 °C 8.9 °C 1014.8 hPa NW 2.6 km/h 5.0 km/h 73% 0.0 mm 137 W/m2
07:39 13.5 °C 8.8 °C 1014.8 hPa NW 5.0 km/h 6.1 km/h 73% 0.0 mm 148 W/m2
07:55 13.5 °C 9.2 °C 1014.8 hPa NNW 1.1 km/h 6.1 km/h 75% 0.0 mm 162 W/m2
08:00 14.0 °C 9.2 °C 1014.8 hPa NW 1.1 km/h 5.0 km/h 73% 0.0 mm 167 W/m2
08:06 14.2 °C 9.2 °C 1014.8 hPa NW 1.1 km/h 6.1 km/h 72% 0.0 mm 168 W/m2
08:11 14.5 °C 9.5 °C 1014.8 hPa NW 2.6 km/h 6.1 km/h 72% 0.0 mm 173 W/m2
08:16 14.7 °C 9.9 °C 1015.1 hPa Calm   6.1 km/h 73% 0.0 mm 181 W/m2
08:26 14.9 °C 9.7 °C 1015.5 hPa NW 2.6 km/h 6.1 km/h 71% 0.0 mm 196 W/m2
08:31 15.2 °C 9.8 °C 1015.5 hPa NNW 1.1 km/h 6.1 km/h 70% 0.0 mm 204 W/m2
08:36 15.1 °C 9.7 °C 1015.5 hPa NNW 3.5 km/h 7.2 km/h 70% 0.0 mm 213 W/m2
08:41 15.2 °C 9.8 °C 1016.1 hPa Calm   7.2 km/h 70% 0.0 mm 221 W/m2
08:46 15.5 °C 9.6 °C 1016.1 hPa Calm   6.1 km/h 68% 0.0 mm 235 W/m2
08:51 16.1 °C 8.3 °C 1016.1 hPa West 5.0 km/h 9.7 km/h 60% 0.0 mm 247 W/m2
09:07 15.5 °C 7.3 °C 1016.1 hPa SW 7.2 km/h 13.4 km/h 58% 0.0 mm 275 W/m2
09:12 15.4 °C 7.4 °C 1016.5 hPa SW 5.0 km/h 13.4 km/h 59% 0.0 mm 285 W/m2
09:17 15.5 °C 7.0 °C 1016.5 hPa SW 5.0 km/h 12.2 km/h 57% 0.0 mm 297 W/m2
09:22 15.6 °C 7.4 °C 1016.1 hPa SW 8.7 km/h 12.2 km/h 58% 0.0 mm 308 W/m2
09:27 15.8 °C 7.3 °C 1016.1 hPa WSW 3.5 km/h 12.2 km/h 57% 0.0 mm 317 W/m2
09:32 15.6 °C 7.1 °C 1016.5 hPa SW 3.5 km/h 18.3 km/h 57% 0.0 mm 325 W/m2
09:37 15.6 °C 7.4 °C 1016.5 hPa SW 7.2 km/h 18.3 km/h 58% 0.0 mm 335 W/m2
09:42 15.8 °C 7.3 °C 1016.5 hPa SW 5.0 km/h 12.2 km/h 57% 0.0 mm 347 W/m2
09:47 15.8 °C 7.1 °C 1016.5 hPa SW 5.0 km/h 11.1 km/h 56% 0.0 mm 358 W/m2
09:52 16.1 °C 6.8 °C 1016.8 hPa SSW 3.5 km/h 11.1 km/h 54% 0.0 mm 370 W/m2
09:57 16.1 °C 6.8 °C 1016.8 hPa SSW 7.2 km/h 15.8 km/h 54% 0.0 mm 381 W/m2
10:02 15.9 °C 6.9 °C 1016.8 hPa SSW 3.5 km/h 15.8 km/h 55% 0.0 mm 391 W/m2
10:07 15.9 °C 7.2 °C 1016.8 hPa SSW 5.0 km/h 13.4 km/h 56% 0.0 mm 401 W/m2
10:12 16.1 °C 7.1 °C 1016.8 hPa SSW 6.1 km/h 12.2 km/h 55% 0.0 mm 415 W/m2
10:17 16.1 °C 7.3 °C 1016.8 hPa SW 7.2 km/h 12.2 km/h 56% 0.0 mm 428 W/m2
10:22 16.1 °C 6.8 °C 1016.5 hPa SW 6.1 km/h 12.2 km/h 54% 0.0 mm 438 W/m2
10:27 16.2 °C 6.9 °C 1016.8 hPa SSW 3.5 km/h 12.2 km/h 54% 0.0 mm 443 W/m2
10:32 15.8 °C 6.8 °C 1016.8 hPa South 7.2 km/h 15.8 km/h 55% 0.0 mm 458 W/m2
10:37 15.8 °C 7.3 °C 1016.8 hPa South 8.7 km/h 15.8 km/h 57% 0.0 mm 418 W/m2
10:42 15.8 °C 7.6 °C 1016.8 hPa South 7.2 km/h 14.8 km/h 58% 0.0 mm 478 W/m2
10:47 15.7 °C 7.7 °C 1016.8 hPa South 5.0 km/h 14.8 km/h 59% 0.0 mm 218 W/m2
10:52 15.7 °C 7.7 °C 1016.8 hPa South 7.2 km/h 14.8 km/h 59% 0.0 mm 494 W/m2
10:57 15.6 °C 8.1 °C 1016.8 hPa South 6.1 km/h 14.8 km/h 61% 0.0 mm 504 W/m2
11:02 15.6 °C 7.9 °C 1016.8 hPa South 5.0 km/h 14.8 km/h 60% 0.0 mm 494 W/m2
11:07 15.7 °C 8.2 °C 1016.8 hPa South 8.7 km/h 13.4 km/h 61% 0.0 mm 527 W/m2
11:12 15.4 °C 7.9 °C 1016.8 hPa South 5.0 km/h 13.4 km/h 61% 0.0 mm 523 W/m2
11:17 15.3 °C 8.3 °C 1016.8 hPa South 7.2 km/h 13.4 km/h 63% 0.0 mm 554 W/m2
11:27 15.9 °C 9.1 °C 1016.8 hPa SSE 6.1 km/h 13.4 km/h 64% 0.0 mm 584 W/m2
11:32 16.0 °C 8.7 °C 1016.8 hPa South 9.7 km/h 14.8 km/h 62% 0.0 mm 592 W/m2
11:37 15.6 °C 8.6 °C 1016.8 hPa South 8.7 km/h 15.8 km/h 63% 0.0 mm 653 W/m2
11:42 15.4 °C 8.4 °C 1016.8 hPa South 8.7 km/h 18.3 km/h 63% 0.0 mm 710 W/m2
11:52 15.5 °C 8.5 °C 1016.8 hPa South 9.7 km/h 19.5 km/h 63% 0.0 mm 754 W/m2
11:57 15.7 °C 8.9 °C 1016.8 hPa South 3.5 km/h 15.8 km/h 64% 0.0 mm 721 W/m2
12:02 16.6 °C 9.3 °C 1016.5 hPa SSE 8.7 km/h 15.8 km/h 62% 0.0 mm 272 W/m2
12:07 16.2 °C 8.9 °C 1016.5 hPa South 8.7 km/h 15.8 km/h 62% 0.0 mm 717 W/m2
12:12 16.2 °C 9.2 °C 1016.5 hPa South 9.7 km/h 15.8 km/h 63% 0.0 mm 672 W/m2
12:17 16.3 °C 9.0 °C 1016.8 hPa South 12.2 km/h 18.3 km/h 62% 0.0 mm 677 W/m2
12:22 15.7 °C 8.7 °C 1016.5 hPa South 8.7 km/h 18.3 km/h 63% 0.0 mm 679 W/m2
12:27 15.8 °C 8.8 °C 1016.5 hPa South 7.2 km/h 18.3 km/h 63% 0.0 mm 687 W/m2
12:32 16.0 °C 8.9 °C 1016.8 hPa South 5.0 km/h 19.5 km/h 63% 0.0 mm 702 W/m2
12:37 15.5 °C 10.7 °C 1016.8 hPa South 15.8 km/h 23.3 km/h 73% 0.0 mm 702 W/m2
12:42 15.4 °C 11.0 °C 1016.8 hPa South 6.1 km/h 23.3 km/h 75% 0.0 mm 713 W/m2
12:47 15.4 °C 10.8 °C 1016.5 hPa SSE 8.7 km/h 19.5 km/h 74% 0.0 mm 722 W/m2
12:52 15.2 °C 10.4 °C 1016.8 hPa SSE 12.2 km/h 21.9 km/h 73% 0.0 mm 720 W/m2
12:57 15.2 °C 10.8 °C 1016.8 hPa SSE 12.2 km/h 21.9 km/h 75% 0.0 mm 725 W/m2
13:02 15.2 °C 10.6 °C 1016.8 hPa SSE 7.2 km/h 19.5 km/h 74% 0.0 mm 724 W/m2
13:07 15.3 °C 10.5 °C 1016.8 hPa SSE 14.8 km/h 19.5 km/h 73% 0.0 mm 722 W/m2
13:12 15.3 °C 10.7 °C 1016.5 hPa South 2.6 km/h 19.5 km/h 74% 0.0 mm 725 W/m2
13:17 15.6 °C 10.8 °C 1016.5 hPa SSE 7.2 km/h 18.3 km/h 73% 0.0 mm 727 W/m2
13:22 15.5 °C 10.7 °C 1016.8 hPa SSE 8.7 km/h 17.2 km/h 73% 0.0 mm 719 W/m2
13:27 15.5 °C 10.5 °C 1016.5 hPa South 12.2 km/h 19.5 km/h 72% 0.0 mm 719 W/m2
13:37 15.9 °C 10.9 °C 1016.8 hPa SSE 8.7 km/h 18.3 km/h 72% 0.0 mm 715 W/m2
13:42 15.8 °C 10.6 °C 1016.8 hPa South 5.0 km/h 17.2 km/h 71% 0.0 mm 706 W/m2
14:02 15.6 °C 10.4 °C 1016.5 hPa South 8.7 km/h 17.2 km/h 71% 0.0 mm 671 W/m2
14:07 15.5 °C 10.3 °C 1016.5 hPa SSE 11.1 km/h 18.3 km/h 71% 0.0 mm 628 W/m2
14:12 15.3 °C 10.1 °C 1016.5 hPa South 9.7 km/h 18.3 km/h 71% 0.0 mm 513 W/m2
14:17 15.7 °C 10.4 °C 1016.8 hPa South 11.1 km/h 18.3 km/h 71% 0.0 mm 639 W/m2
14:22 15.7 °C 10.7 °C 1016.8 hPa South 6.1 km/h 18.3 km/h 72% 0.0 mm 657 W/m2
14:27 15.9 °C 10.7 °C 1016.8 hPa South 9.7 km/h 18.3 km/h 71% 0.0 mm 543 W/m2
14:32 15.8 °C 11.0 °C 1016.8 hPa South 8.7 km/h 18.3 km/h 73% 0.0 mm 214 W/m2
14:37 15.9 °C 11.1 °C 1016.8 hPa South 6.1 km/h 19.5 km/h 73% 0.0 mm 540 W/m2
14:42 16.0 °C 10.8 °C 1016.5 hPa SSE 12.2 km/h 19.5 km/h 71% 0.0 mm 313 W/m2
14:47 15.2 °C 10.0 °C 1016.5 hPa South 13.4 km/h 20.9 km/h 71% 0.0 mm 582 W/m2
14:52 15.8 °C 11.2 °C 1016.5 hPa South 6.1 km/h 20.9 km/h 74% 0.0 mm 576 W/m2
14:57 16.5 °C 10.6 °C 1016.5 hPa SSE 7.2 km/h 19.5 km/h 68% 0.0 mm 588 W/m2
15:02 16.6 °C 10.2 °C 1016.1 hPa SSE 11.1 km/h 18.3 km/h 66% 0.0 mm 527 W/m2
15:07 16.1 °C 10.2 °C 1016.5 hPa South 9.7 km/h 18.3 km/h 68% 0.0 mm 496 W/m2
15:12 16.3 °C 10.2 °C 1016.1 hPa South 11.1 km/h 18.3 km/h 67% 0.0 mm 513 W/m2
15:17 16.2 °C 10.1 °C 1016.1 hPa South 1.1 km/h 14.8 km/h 67% 0.0 mm 519 W/m2
15:22 16.2 °C 10.3 °C 1016.1 hPa South 6.1 km/h 15.8 km/h 68% 0.0 mm 478 W/m2
15:27 16.3 °C 10.4 °C 1016.1 hPa South 3.5 km/h 15.8 km/h 68% 0.0 mm 468 W/m2
15:32 16.3 °C 10.4 °C 1016.1 hPa South 9.7 km/h 15.8 km/h 68% 0.0 mm 412 W/m2
15:37 16.1 °C 10.2 °C 1016.1 hPa South 6.1 km/h 15.8 km/h 68% 0.0 mm 446 W/m2
15:42 16.6 °C 11.1 °C 1016.1 hPa South 3.5 km/h 15.8 km/h 70% 0.0 mm 481 W/m2
15:47 16.3 °C 9.9 °C 1016.1 hPa South 9.7 km/h 14.8 km/h 66% 0.0 mm 397 W/m2
15:52 16.3 °C 10.2 °C 1016.1 hPa SSE 2.6 km/h 15.8 km/h 67% 0.0 mm 415 W/m2
15:57 15.9 °C 9.8 °C 1016.1 hPa SSE 5.0 km/h 15.8 km/h 67% 0.0 mm 125 W/m2
16:02 16.3 °C 10.4 °C 1015.8 hPa SSE 6.1 km/h 15.8 km/h 68% 0.0 mm 135 W/m2
16:07 16.4 °C 10.1 °C 1015.8 hPa SSE 3.5 km/h 13.4 km/h 66% 0.0 mm 371 W/m2
16:15 16.3 °C 10.2 °C 1015.8 hPa SSE 8.7 km/h 14.8 km/h 67% 0.0 mm 234 W/m2
16:20 16.2 °C 9.8 °C 1016.1 hPa SSE 6.1 km/h 14.8 km/h 66% 0.0 mm 367 W/m2
16:23 16.4 °C 10.3 °C 1015.8 hPa SSE 6.1 km/h 14.8 km/h 67% 0.0 mm 360 W/m2
16:29 17.3 °C 10.4 °C 1015.8 hPa SSE 6.1 km/h 11.1 km/h 64% 0.0 mm 348 W/m2
16:34 16.6 °C 10.0 °C 1015.8 hPa SE 5.0 km/h 8.7 km/h 65% 0.0 mm 379 W/m2
16:39 16.6 °C 10.2 °C 1015.8 hPa SE 3.5 km/h 8.7 km/h 66% 0.0 mm 272 W/m2
16:40 16.6 °C 10.2 °C 1015.8 hPa SE 5.0 km/h 11.1 km/h 66% 0.0 mm 339 W/m2
16:45 16.8 °C 9.9 °C 1015.8 hPa SE 7.2 km/h 12.2 km/h 64% 0.0 mm 267 W/m2
16:50 16.3 °C 9.7 °C 1015.8 hPa SSE 3.5 km/h 12.2 km/h 65% 0.0 mm 333 W/m2
17:00 15.7 °C 10.1 °C 1015.8 hPa SSE 8.7 km/h 12.2 km/h 69% 0.0 mm 224 W/m2
17:05 15.5 °C 9.6 °C 1016.1 hPa South 6.1 km/h 13.4 km/h 68% 0.0 mm 159 W/m2
17:10 15.1 °C 9.4 °C 1015.8 hPa South 6.1 km/h 13.4 km/h 69% 0.0 mm 106 W/m2
17:15 14.8 °C 9.6 °C 1015.8 hPa South 5.0 km/h 8.7 km/h 71% 0.0 mm 135 W/m2
17:20 14.7 °C 9.9 °C 1015.5 hPa SSE 3.5 km/h 9.7 km/h 73% 0.0 mm 217 W/m2
17:22 14.9 °C 10.1 °C 1015.5 hPa SSE 5.0 km/h 12.2 km/h 73% 0.0 mm 218 W/m2
17:27 15.8 °C 10.1 °C 1015.5 hPa South 2.6 km/h 12.2 km/h 69% 0.0 mm 106 W/m2
17:32 14.9 °C 9.5 °C 1015.8 hPa Calm   9.7 km/h 70% 0.0 mm 193 W/m2
17:37 15.1 °C 9.7 °C 1015.5 hPa South 7.2 km/h 9.7 km/h 70% 0.0 mm 66 W/m2
17:42 14.7 °C 9.7 °C 1015.8 hPa South 1.1 km/h 9.7 km/h 72% 0.0 mm 180 W/m2
17:47 15.8 °C 10.3 °C 1015.8 hPa SSE 2.6 km/h 9.7 km/h 70% 0.0 mm 106 W/m2
17:52 15.4 °C 9.7 °C 1015.8 hPa SSE 6.1 km/h 9.7 km/h 69% 0.0 mm 80 W/m2
17:57 14.5 °C 9.7 °C 1015.8 hPa South 1.1 km/h 9.7 km/h 73% 0.0 mm 70 W/m2
18:02 14.7 °C 10.1 °C 1015.8 hPa South 3.5 km/h 8.7 km/h 74% 0.0 mm 73 W/m2
18:07 14.3 °C 9.7 °C 1015.8 hPa South 3.5 km/h 8.7 km/h 74% 0.0 mm 58 W/m2
18:12 13.9 °C 9.7 °C 1015.5 hPa SSW 5.0 km/h 9.7 km/h 76% 0.0 mm 84 W/m2
18:17 14.3 °C 9.9 °C 1015.5 hPa South 1.1 km/h 9.7 km/h 75% 0.0 mm 54 W/m2
18:22 14.1 °C 9.6 °C 1015.8 hPa Calm   9.7 km/h 74% 0.0 mm 49 W/m2
18:27 14.0 °C 9.7 °C 1015.8 hPa SE 3.5 km/h 9.7 km/h 75% 0.0 mm 43 W/m2
18:32 13.8 °C 9.8 °C 1015.5 hPa Calm   9.7 km/h 77% 0.0 mm 46 W/m2
18:37 13.8 °C 9.8 °C 1015.5 hPa Calm   9.7 km/h 77% 0.0 mm 47 W/m2
18:42 14.1 °C 9.9 °C 1015.8 hPa SSE 2.6 km/h 5.0 km/h 76% 0.0 mm 45 W/m2
18:47 14.1 °C 9.7 °C 1015.8 hPa South 2.6 km/h 5.0 km/h 75% 0.0 mm 30 W/m2
18:52 13.8 °C 9.8 °C 1015.8 hPa South 2.6 km/h 5.0 km/h 77% 0.0 mm 27 W/m2
18:57 13.5 °C 9.7 °C 1015.8 hPa South 2.6 km/h 6.1 km/h 78% 0.0 mm 21 W/m2
19:02 13.3 °C 9.6 °C 1015.8 hPa Calm   6.1 km/h 78% 0.0 mm 17 W/m2
19:07 13.1 °C 9.6 °C 1015.8 hPa Calm   3.5 km/h 79% 0.0 mm 10 W/m2
19:12 13.0 °C 9.4 °C 1015.8 hPa Calm   3.5 km/h 79% 0.0 mm 8 W/m2
19:17 12.8 °C 9.6 °C 1015.8 hPa Calm   2.6 km/h 81% 0.0 mm 4 W/m2
19:22 12.7 °C 9.5 °C 1015.8 hPa Calm   2.6 km/h 81% 0.0 mm 1 W/m2
19:27 12.5 °C 9.5 °C 1015.8 hPa Calm   2.6 km/h 82% 0.0 mm 0 W/m2
19:32 12.3 °C 9.3 °C 1015.8 hPa Calm   1.1 km/h 82% 0.0 mm 0 W/m2
19:37 12.2 °C 9.2 °C 1015.8 hPa Calm   1.1 km/h 82% 0.0 mm 0 W/m2
19:42 12.1 °C 9.3 °C 1015.8 hPa Calm     83% 0.0 mm 0 W/m2
19:47 12.0 °C 9.2 °C 1015.8 hPa Calm   1.1 km/h 83% 0.0 mm 0 W/m2
19:52 11.9 °C 9.4 °C 1015.8 hPa Calm   1.1 km/h 85% 0.0 mm 0 W/m2
19:57 11.8 °C 9.4 °C 1016.1 hPa Calm   1.1 km/h 85% 0.0 mm 0 W/m2
20:15 11.4 °C 9.2 °C 1015.8 hPa Calm     86% 0.0 mm 0 W/m2
20:20 11.3 °C 9.2 °C 1016.1 hPa Calm     87% 0.0 mm 0 W/m2
20:27 11.2 °C 9.1 °C 1016.1 hPa Calm     87% 0.0 mm 0 W/m2
20:32 11.2 °C 9.3 °C 1016.1 hPa Calm     88% 0.0 mm 0 W/m2
20:37 11.1 °C 9.3 °C 1016.1 hPa Calm     89% 0.0 mm 0 W/m2
20:42 11.1 °C 9.3 °C 1016.1 hPa Calm     89% 0.0 mm 0 W/m2
20:47 10.9 °C 9.3 °C 1016.1 hPa Calm     90% 0.0 mm 0 W/m2
20:52 10.8 °C 9.2 °C 1016.1 hPa Calm     90% 0.0 mm 0 W/m2
20:57 10.8 °C 9.2 °C 1016.5 hPa Calm     90% 0.0 mm 0 W/m2
21:02 10.9 °C 9.5 °C 1016.5 hPa Calm     91% 0.0 mm 0 W/m2
21:07 10.9 °C 9.7 °C 1016.1 hPa Calm     92% 0.0 mm 0 W/m2
21:12 10.9 °C 9.8 °C 1016.1 hPa Calm     93% 0.0 mm 0 W/m2
21:17 10.9 °C 9.8 °C 1016.1 hPa Calm     93% 0.0 mm 0 W/m2
21:22 10.9 °C 9.8 °C 1016.1 hPa Calm     93% 0.0 mm 0 W/m2
21:27 10.9 °C 10.0 °C 1016.1 hPa Calm     94% 0.0 mm 0 W/m2
21:32 11.1 °C 10.0 °C 1016.1 hPa Calm     93% 0.0 mm 0 W/m2
21:38 11.1 °C 10.0 °C 1016.1 hPa Calm     93% 0.0 mm 0 W/m2
21:43 11.1 °C 10.0 °C 1016.1 hPa Calm     93% 0.0 mm 0 W/m2
21:53 11.3 °C 10.2 °C 1016.1 hPa Calm   1.1 km/h 93% 0.0 mm 0 W/m2
21:58 11.3 °C 10.4 °C 1016.1 hPa Calm     94% 0.0 mm 0 W/m2
22:03 11.3 °C 10.4 °C 1016.1 hPa Calm   1.1 km/h 94% 0.0 mm 0 W/m2
22:08 11.3 °C 10.4 °C 1016.1 hPa Calm   1.1 km/h 94% 0.0 mm 0 W/m2
22:13 11.3 °C 10.4 °C 1016.1 hPa Calm   2.6 km/h 94% 0.0 mm 0 W/m2
22:18 11.3 °C 10.4 °C 1016.1 hPa Calm   2.6 km/h 94% 0.0 mm 0 W/m2
22:23 11.3 °C 10.4 °C 1016.1 hPa Calm     94% 0.0 mm 0 W/m2
22:28 11.3 °C 10.4 °C 1016.1 hPa Calm     94% 0.0 mm 0 W/m2
22:33 11.4 °C 10.3 °C 1016.1 hPa Calm     93% 0.0 mm 0 W/m2
22:38 11.5 °C 10.4 °C 1015.8 hPa Calm   3.5 km/h 93% 0.0 mm 0 W/m2
22:43 11.4 °C 10.3 °C 1015.8 hPa Calm   3.5 km/h 93% 0.0 mm 0 W/m2
22:48 11.4 °C 10.3 °C 1015.8 hPa Calm   3.5 km/h 93% 0.0 mm 0 W/m2
22:58 11.4 °C 10.3 °C 1015.8 hPa Calm   3.5 km/h 93% 0.0 mm 0 W/m2
23:03 11.4 °C 10.3 °C 1015.8 hPa North 1.1 km/h 5.0 km/h 93% 0.0 mm 0 W/m2
23:08 11.5 °C 10.4 °C 1015.8 hPa Calm   5.0 km/h 93% 0.0 mm 0 W/m2
23:13 11.5 °C 10.4 °C 1015.8 hPa Calm   3.5 km/h 93% 0.0 mm 0 W/m2
23:18 11.5 °C 10.4 °C 1015.8 hPa Calm   3.5 km/h 93% 0.0 mm 0 W/m2
23:23 11.5 °C 10.4 °C 1015.8 hPa NW 1.1 km/h 2.6 km/h 93% 0.0 mm 0 W/m2
23:28 11.5 °C 10.4 °C 1015.8 hPa NW 1.1 km/h 5.0 km/h 93% 0.0 mm 0 W/m2
23:33 11.5 °C 10.4 °C 1015.8 hPa Calm   5.0 km/h 93% 0.0 mm 0 W/m2
23:38 11.4 °C 10.4 °C 1015.8 hPa Calm   3.5 km/h 94% 0.0 mm 0 W/m2
23:43 11.4 °C 10.4 °C 1015.8 hPa NNW 1.1 km/h 3.5 km/h 94% 0.0 mm 0 W/m2
23:53 11.4 °C 10.4 °C 1015.8 hPa Calm   3.5 km/h 94% 0.0 mm 0 W/m2
23:58 11.4 °C 10.4 °C 1015.5 hPa Calm   3.5 km/h 94% 0.0 mm 0 W/m2
Northern Hawkes Bay. New Zealand Historic Data
Compliments of Weather Underground - 2 mb